createdAt,value
2022-08-07T00:01:44.686Z,4.22
2022-08-07T00:04:09.453Z,3.65
2022-08-07T00:06:41.126Z,4.47
2022-08-07T00:09:21.073Z,3.60
2022-08-07T00:11:55.774Z,4.28
2022-08-07T00:14:31.388Z,4.20
2022-08-07T00:17:02.569Z,3.88
2022-08-07T00:20:00.295Z,3.80
2022-08-07T00:22:24.415Z,4.00
2022-08-07T00:25:07.388Z,5.20
2022-08-07T00:27:53.274Z,5.13
2022-08-07T00:30:28.145Z,4.22
2022-08-07T00:32:58.030Z,5.90
2022-08-07T00:35:25.885Z,3.92
2022-08-07T00:37:53.454Z,3.85
2022-08-07T00:40:39.210Z,3.35
2022-08-07T00:43:59.857Z,3.45
2022-08-07T00:46:01.743Z,3.50
2022-08-07T00:48:32.027Z,3.03
2022-08-07T00:50:59.721Z,4.28
2022-08-07T00:53:39.404Z,3.50
2022-08-07T00:56:15.958Z,3.63
2022-08-07T00:58:46.580Z,2.63
2022-08-07T01:01:15.264Z,3.13
2022-08-07T01:03:56.150Z,2.42
2022-08-07T01:06:27.240Z,3.17
2022-08-07T01:08:55.693Z,2.42
2022-08-07T01:12:08.933Z,2.65
2022-08-07T01:14:11.933Z,2.72
2022-08-07T01:16:46.868Z,2.60
2022-08-07T01:19:19.295Z,4.18
2022-08-07T01:21:53.204Z,3.35
2022-08-07T01:24:27.538Z,3.42
2022-08-07T01:26:57.538Z,2.47
2022-08-07T01:29:27.640Z,3.47
2022-08-07T01:31:59.465Z,3.22
2022-08-07T01:34:31.489Z,2.92
2022-08-07T01:37:01.789Z,2.40
2022-08-07T01:39:41.265Z,3.75
2022-08-07T01:42:40.249Z,2.53
2022-08-07T01:45:18.162Z,2.72
2022-08-07T01:48:19.977Z,2.28
2022-08-07T01:50:43.260Z,3.95
2022-08-07T01:53:21.697Z,2.90
2022-08-07T01:56:17.340Z,2.63
2022-08-07T01:58:52.365Z,3.10
2022-08-07T02:02:01.915Z,3.15
2022-08-07T02:04:52.560Z,2.50
2022-08-07T02:07:44.803Z,2.47
2022-08-07T02:10:23.945Z,2.67
2022-08-07T02:13:16.501Z,3.95
2022-08-07T02:15:50.571Z,2.72
2022-08-07T02:18:21.486Z,2.38
2022-08-07T02:20:57.279Z,3.17
2022-08-07T02:23:28.497Z,3.53
2022-08-07T02:26:31.973Z,3.03
2022-08-07T02:28:45.625Z,2.45
2022-08-07T02:31:28.228Z,2.35
2022-08-07T02:34:03.626Z,2.45
2022-08-07T02:36:42.488Z,2.90
2022-08-07T02:39:43.324Z,3.20
2022-08-07T02:42:09.885Z,5.18
2022-08-07T02:44:48.239Z,4.57
2022-08-07T02:47:19.179Z,3.17
2022-08-07T02:49:58.784Z,2.75
2022-08-07T02:52:38.629Z,2.65
2022-08-07T02:55:15.246Z,2.65
2022-08-07T02:57:59.833Z,3.40
2022-08-07T03:00:30.242Z,4.15
2022-08-07T03:03:00.094Z,3.00
2022-08-07T03:05:37.831Z,2.88
2022-08-07T03:08:10.283Z,3.05
2022-08-07T03:10:46.946Z,2.83
2022-08-07T03:13:20.139Z,2.47
2022-08-07T03:15:56.406Z,2.40
2022-08-07T03:18:34.892Z,2.38
2022-08-07T03:21:08.851Z,2.60
2022-08-07T03:24:18.997Z,3.45
2022-08-07T03:26:33.081Z,3.92
2022-08-07T03:29:10.535Z,3.00
2022-08-07T03:31:42.895Z,4.15
2022-08-07T03:34:18.783Z,2.90
2022-08-07T03:36:53.745Z,3.10
2022-08-07T03:39:45.891Z,4.35
2022-08-07T03:42:12.283Z,3.10
2022-08-07T03:44:42.870Z,2.70
2022-08-07T03:47:19.241Z,2.70
2022-08-07T03:49:52.503Z,2.75
2022-08-07T03:52:27.249Z,3.95
2022-08-07T03:55:07.461Z,3.42
2022-08-07T03:59:05.011Z,2.75
2022-08-07T04:00:33.398Z,4.00
2022-08-07T04:03:06.909Z,4.13
2022-08-07T04:05:40.872Z,2.92
2022-08-07T04:08:16.299Z,3.38
2022-08-07T04:10:54.228Z,2.88
2022-08-07T04:14:33.187Z,3.10
2022-08-07T04:16:33.512Z,6.32
2022-08-07T04:19:12.563Z,3.28
2022-08-07T04:21:59.700Z,3.60
2022-08-07T04:24:41.734Z,4.13
2022-08-07T04:27:20.341Z,2.95
2022-08-07T04:30:01.963Z,6.47
2022-08-07T04:32:58.399Z,3.55
2022-08-07T04:35:34.976Z,3.67
2022-08-07T04:38:07.782Z,3.20
2022-08-07T04:40:52.088Z,2.92
2022-08-07T04:44:13.231Z,4.15
2022-08-07T04:46:29.490Z,3.28
2022-08-07T04:49:25.647Z,3.85
2022-08-07T04:52:28.254Z,5.15
2022-08-07T04:58:12.483Z,3.60
2022-08-07T04:58:31.630Z,4.00
2022-08-07T05:01:18.371Z,3.90
2022-08-07T05:04:08.647Z,4.57
2022-08-07T05:06:53.465Z,5.18
2022-08-07T05:09:45.455Z,4.43
2022-08-07T05:12:26.952Z,4.70
2022-08-07T05:15:23.256Z,6.05
2022-08-07T05:18:09.206Z,6.47
2022-08-07T05:20:48.032Z,5.88
2022-08-07T05:23:42.147Z,6.35
2022-08-07T05:26:24.103Z,5.82
2022-08-07T05:28:59.313Z,8.93
2022-08-07T05:31:37.785Z,8.95
2022-08-07T05:36:44.697Z,7.95
2022-08-07T05:40:17.950Z,9.85
2022-08-07T05:42:34.747Z,10.23
2022-08-07T05:45:14.331Z,10.23
2022-08-07T05:48:02.095Z,8.60
2022-08-07T05:53:04.222Z,10.88
2022-08-07T05:56:02.761Z,11.27
2022-08-07T05:58:36.403Z,9.88
2022-08-07T06:01:11.321Z,9.77
2022-08-07T06:03:57.055Z,11.93
2022-08-07T06:06:36.327Z,12.63
2022-08-07T06:09:08.841Z,11.10
2022-08-07T06:11:41.405Z,12.35
2022-08-07T06:14:11.418Z,12.25
2022-08-07T06:16:50.459Z,11.23
2022-08-07T06:19:47.938Z,10.98
2022-08-07T06:22:22.808Z,12.55
2022-08-07T06:25:01.063Z,11.10
2022-08-07T06:27:44.296Z,13.50
2022-08-07T06:30:31.957Z,10.73
2022-08-07T06:33:15.774Z,12.38
2022-08-07T06:36:06.593Z,11.10
2022-08-07T06:38:32.555Z,11.40
2022-08-07T06:41:06.935Z,13.10
2022-08-07T06:43:46.541Z,11.00
2022-08-07T06:46:31.313Z,9.18
2022-08-07T06:49:03.927Z,11.07
2022-08-07T06:51:35.902Z,11.13
2022-08-07T06:55:31.764Z,8.50
2022-08-07T06:57:08.029Z,10.38
2022-08-07T07:00:12.996Z,8.95
2022-08-07T07:02:53.354Z,12.80
2022-08-07T07:06:02.462Z,8.88
2022-08-07T07:08:06.818Z,9.85
2022-08-07T07:10:35.555Z,10.30
2022-08-07T07:13:17.100Z,10.32
2022-08-07T07:16:11.558Z,12.90
2022-08-07T07:18:48.225Z,9.45
2022-08-07T07:21:19.552Z,9.80
2022-08-07T07:24:10.219Z,11.82
2022-08-07T07:26:40.675Z,12.30
2022-08-07T07:29:57.172Z,9.75
2022-08-07T07:32:05.731Z,10.88
2022-08-07T07:34:44.235Z,9.50
2022-08-07T07:37:22.081Z,9.60
2022-08-07T07:40:14.719Z,8.45
2022-08-07T07:42:47.027Z,13.15
2022-08-07T07:46:37.036Z,7.25
2022-08-07T07:48:35.948Z,7.07
2022-08-07T07:51:08.229Z,8.60
2022-08-07T07:53:52.060Z,8.10
2022-08-07T07:56:30.036Z,6.60
2022-08-07T07:58:59.776Z,7.43
2022-08-07T08:02:05.243Z,11.20
2022-08-07T08:04:17.386Z,6.35
2022-08-07T08:06:52.045Z,7.03
2022-08-07T08:09:24.192Z,6.72
2022-08-07T08:12:02.837Z,6.30
2022-08-07T08:14:34.230Z,5.70
2022-08-07T08:17:32.400Z,6.05
2022-08-07T08:20:18.487Z,6.53
2022-08-07T08:23:08.439Z,5.45
2022-08-07T08:25:56.433Z,6.35
2022-08-07T08:28:37.327Z,5.50
2022-08-07T08:31:15.613Z,5.15
2022-08-07T08:33:49.337Z,6.72
2022-08-07T08:36:18.501Z,7.97
2022-08-07T08:38:54.355Z,5.68
2022-08-07T08:41:59.513Z,3.92
2022-08-07T08:44:52.935Z,7.65
2022-08-07T08:47:28.108Z,5.18
2022-08-07T08:50:34.743Z,4.53
2022-08-07T08:53:19.260Z,5.22
2022-08-07T08:55:59.060Z,6.22
2022-08-07T08:58:54.534Z,5.00
2022-08-07T09:01:49.049Z,4.05
2022-08-07T09:04:43.500Z,4.10
2022-08-07T09:07:25.162Z,6.43
2022-08-07T09:10:17.550Z,5.30
2022-08-07T09:13:20.095Z,4.28
2022-08-07T09:16:35.193Z,5.93
2022-08-07T09:19:51.837Z,6.63
2022-08-07T09:24:28.153Z,4.60
2022-08-07T09:30:03.182Z,4.38
2022-08-07T09:31:08.487Z,3.03
2022-08-07T09:33:56.781Z,3.55
2022-08-07T09:36:36.894Z,3.90
2022-08-07T09:39:11.439Z,4.18
2022-08-07T09:42:32.935Z,9.50
2022-08-07T09:47:23.538Z,4.47
2022-08-07T09:48:21.126Z,5.47
2022-08-07T09:52:15.800Z,3.90
2022-08-07T09:54:39.016Z,4.35
2022-08-07T09:57:37.463Z,3.20
2022-08-07T10:00:16.470Z,3.90
2022-08-07T10:03:08.553Z,4.47
2022-08-07T10:06:11.942Z,4.93
2022-08-07T10:09:06.945Z,5.40
2022-08-07T10:12:02.143Z,4.32
2022-08-07T10:14:58.203Z,4.13
2022-08-07T10:18:03.091Z,5.40
2022-08-07T10:20:51.946Z,4.90
2022-08-07T10:24:06.304Z,3.90
2022-08-07T10:26:37.178Z,3.90
2022-08-07T10:29:25.553Z,3.63
2022-08-07T10:32:52.428Z,4.93
2022-08-07T10:35:56.280Z,5.03
2022-08-07T10:38:51.845Z,4.97
2022-08-07T10:41:52.339Z,5.47
2022-08-07T10:44:39.801Z,3.35
2022-08-07T10:47:26.838Z,6.35
2022-08-07T10:50:32.434Z,5.25
2022-08-07T10:53:21.249Z,4.43
2022-08-07T10:56:11.197Z,3.67
2022-08-07T10:59:37.426Z,6.18
2022-08-07T11:02:38.093Z,3.47
2022-08-07T11:05:48.868Z,4.45
2022-08-07T11:08:33.033Z,2.60
2022-08-07T11:11:03.862Z,3.97
2022-08-07T11:14:43.504Z,3.35
2022-08-07T11:16:39.290Z,4.18
2022-08-07T11:19:21.613Z,3.03
2022-08-07T11:22:27.300Z,3.22
2022-08-07T11:25:18.082Z,3.50
2022-08-07T11:28:07.540Z,3.45
2022-08-07T11:30:58.517Z,5.00
2022-08-07T11:33:59.852Z,3.42
2022-08-07T11:36:49.820Z,3.83
2022-08-07T11:39:39.798Z,3.75
2022-08-07T11:42:29.655Z,3.75
2022-08-07T11:45:23.623Z,2.83
2022-08-07T11:47:59.559Z,3.25
2022-08-07T11:50:36.193Z,6.07
2022-08-07T11:53:43.406Z,3.33
2022-08-07T11:56:45.232Z,3.85
2022-08-07T12:00:10.534Z,2.75
2022-08-07T12:03:02.560Z,3.10
2022-08-07T12:05:48.918Z,3.05
2022-08-07T12:08:38.195Z,5.00
2022-08-07T12:11:21.073Z,4.40
2022-08-07T12:14:16.370Z,3.90
2022-08-07T12:16:56.147Z,2.47
2022-08-07T12:20:03.145Z,3.22
2022-08-07T12:23:09.387Z,4.95
2022-08-07T12:26:05.759Z,2.20
2022-08-07T12:28:56.734Z,2.67
2022-08-07T12:32:02.115Z,2.00
2022-08-07T12:34:39.451Z,2.42
2022-08-07T12:37:16.898Z,3.22
2022-08-07T12:39:58.816Z,3.38
2022-08-07T12:42:32.007Z,4.45
2022-08-07T12:45:11.866Z,3.45
2022-08-07T12:47:56.986Z,2.30
2022-08-07T12:50:49.089Z,3.35
2022-08-07T12:53:17.821Z,2.40
2022-08-07T12:56:12.308Z,2.00
2022-08-07T12:58:46.816Z,2.72
2022-08-07T13:01:32.470Z,3.67
2022-08-07T13:04:13.624Z,3.92
2022-08-07T13:08:14.158Z,1.88
2022-08-07T13:10:39.268Z,3.78
2022-08-07T13:13:47.278Z,4.35
2022-08-07T13:16:41.561Z,2.33
2022-08-07T13:19:28.836Z,2.75
2022-08-07T13:22:27.675Z,2.15
2022-08-07T13:25:10.633Z,2.35
2022-08-07T13:28:12.864Z,3.17
2022-08-07T13:30:48.982Z,2.10
2022-08-07T13:34:33.313Z,1.60
2022-08-07T13:36:35.365Z,3.05
2022-08-07T13:40:32.944Z,2.17
2022-08-07T13:42:26.934Z,3.72
2022-08-07T13:46:06.224Z,1.55
2022-08-07T13:48:06.922Z,2.42
2022-08-07T13:50:44.521Z,1.85
2022-08-07T13:53:26.651Z,2.05
2022-08-07T13:56:36.134Z,5.40
2022-08-07T13:59:31.547Z,2.45
2022-08-07T14:02:12.703Z,2.40
2022-08-07T14:04:50.373Z,3.00
2022-08-07T14:07:24.554Z,2.65
2022-08-07T14:10:02.819Z,2.88
2022-08-07T14:13:01.570Z,3.45
2022-08-07T14:15:31.846Z,4.13
2022-08-07T14:18:23.522Z,1.92
2022-08-07T14:21:20.651Z,2.33
2022-08-07T14:24:02.191Z,3.65
2022-08-07T14:26:50.591Z,2.65
2022-08-07T14:30:05.847Z,2.00
2022-08-07T14:32:12.696Z,1.75
2022-08-07T14:34:47.213Z,2.10
2022-08-07T14:37:18.046Z,2.88
2022-08-07T14:40:17.213Z,2.80
2022-08-07T14:43:00.621Z,4.03
2022-08-07T14:45:48.675Z,2.22
2022-08-07T14:48:20.398Z,2.53
2022-08-07T14:50:56.247Z,2.10
2022-08-07T14:54:05.580Z,2.35
2022-08-07T14:56:30.172Z,2.60
2022-08-07T14:59:02.124Z,3.05
2022-08-07T15:01:42.558Z,1.60
2022-08-07T15:04:16.872Z,2.60
2022-08-07T15:06:47.963Z,2.95
2022-08-07T15:09:57.973Z,1.88
2022-08-07T15:15:09.207Z,3.40
2022-08-07T15:21:58.659Z,3.75
2022-08-07T15:25:14.122Z,1.63
2022-08-07T15:27:09.955Z,2.00
2022-08-07T15:30:08.800Z,2.22
2022-08-07T15:32:39.412Z,1.63
2022-08-07T15:38:29.785Z,2.17
2022-08-07T15:41:24.017Z,2.88
2022-08-07T15:44:01.281Z,2.60
2022-08-07T15:50:04.196Z,2.10
2022-08-07T15:52:30.022Z,1.55
2022-08-07T15:57:39.807Z,4.60
2022-08-07T16:00:32.134Z,4.13
2022-08-07T16:03:21.706Z,1.63
2022-08-07T16:05:58.910Z,2.78
2022-08-07T16:08:37.807Z,2.10
2022-08-07T16:11:27.049Z,2.65
2022-08-07T16:14:39.556Z,1.90
2022-08-07T16:18:02.525Z,1.77
2022-08-07T16:20:34.133Z,3.55
2022-08-07T16:23:53.689Z,2.40
2022-08-07T16:26:30.533Z,2.75
2022-08-07T16:30:08.412Z,2.67
2022-08-07T16:32:01.463Z,1.92
2022-08-07T16:34:41.466Z,3.28
2022-08-07T16:38:05.267Z,2.25
2022-08-07T16:41:01.665Z,1.75
2022-08-07T16:44:03.787Z,2.13
2022-08-07T16:47:05.611Z,2.80
2022-08-07T16:50:28.506Z,1.90
2022-08-07T16:54:02.413Z,1.75
2022-08-07T16:56:19.143Z,1.95
2022-08-07T16:59:10.747Z,1.60
2022-08-07T17:02:09.018Z,2.60
2022-08-07T17:05:00.531Z,2.75
2022-08-07T17:07:55.953Z,3.92
2022-08-07T17:10:32.889Z,1.70
2022-08-07T17:14:02.190Z,2.03
2022-08-07T17:16:55.735Z,1.67
2022-08-07T17:20:02.567Z,1.77
2022-08-07T17:23:11.576Z,4.00
2022-08-07T17:26:24.160Z,2.63
2022-08-07T17:29:09.640Z,3.05
2022-08-07T17:32:31.087Z,2.75
2022-08-07T17:35:51.369Z,3.55
2022-08-07T17:38:33.361Z,3.20
2022-08-07T17:42:02.041Z,2.30
2022-08-07T17:44:33.874Z,3.35
2022-08-07T17:47:08.493Z,1.67
2022-08-07T17:49:56.695Z,5.18
2022-08-07T17:52:49.319Z,1.98
2022-08-07T17:56:00.635Z,2.03
2022-08-07T17:58:51.109Z,2.17
2022-08-07T18:01:30.546Z,3.05
2022-08-07T18:04:31.260Z,3.60
2022-08-07T18:07:34.602Z,2.47
2022-08-07T18:10:32.444Z,3.70
2022-08-07T18:13:10.766Z,1.75
2022-08-07T18:16:32.837Z,2.47
2022-08-07T18:21:09.613Z,2.60
2022-08-07T18:22:15.105Z,2.22
2022-08-07T18:24:53.686Z,2.30
2022-08-07T18:27:38.828Z,4.55
2022-08-07T18:33:16.414Z,2.72
2022-08-07T18:36:06.081Z,3.33
2022-08-07T18:40:08.912Z,2.38
2022-08-07T18:42:38.098Z,2.55
2022-08-07T18:45:44.923Z,3.65
2022-08-07T18:50:05.434Z,2.83
2022-08-07T18:52:34.000Z,2.95
2022-08-07T18:54:30.568Z,1.75
2022-08-07T18:57:29.847Z,3.03
2022-08-07T19:00:04.171Z,2.13
2022-08-07T19:03:15.804Z,2.67
2022-08-07T19:06:05.141Z,3.60
2022-08-07T19:08:50.442Z,2.88
2022-08-07T19:11:35.874Z,2.33
2022-08-07T19:14:20.393Z,5.60
2022-08-07T19:17:07.686Z,2.20
2022-08-07T19:19:48.764Z,3.47
2022-08-07T19:22:31.196Z,4.43
2022-08-07T19:25:05.770Z,3.67
2022-08-07T19:30:55.673Z,2.10
2022-08-07T19:31:00.137Z,3.55
2022-08-07T19:33:33.643Z,3.85
2022-08-07T19:36:04.060Z,4.13
2022-08-07T19:38:52.705Z,3.25
2022-08-07T19:41:39.134Z,3.28
2022-08-07T19:44:21.924Z,3.58
2022-08-07T19:47:00.889Z,2.67
2022-08-07T19:49:58.045Z,2.10
2022-08-07T19:52:22.647Z,2.47
2022-08-07T19:54:58.155Z,4.80
2022-08-07T19:58:00.227Z,5.43
2022-08-07T20:00:29.106Z,4.50
2022-08-07T20:03:05.798Z,2.60
2022-08-07T20:06:03.477Z,2.45
2022-08-07T20:08:34.420Z,3.13
2022-08-07T20:11:09.967Z,7.95
2022-08-07T20:13:58.138Z,5.70
2022-08-07T20:16:35.037Z,4.13
2022-08-07T20:19:05.884Z,4.20
2022-08-07T20:21:41.760Z,2.67
2022-08-07T20:24:28.761Z,6.60
2022-08-07T20:26:59.182Z,2.70
2022-08-07T20:29:49.402Z,3.05
2022-08-07T20:32:25.668Z,3.33
2022-08-07T20:34:56.295Z,4.35
2022-08-07T20:37:58.378Z,2.70
2022-08-07T20:40:32.142Z,6.38
2022-08-07T20:43:14.918Z,5.00
2022-08-07T20:48:42.221Z,3.35
2022-08-07T20:51:29.255Z,2.40
2022-08-07T20:54:12.147Z,3.05
2022-08-07T20:59:27.259Z,2.97
2022-08-07T21:02:35.082Z,6.88
2022-08-07T21:05:16.583Z,3.30
2022-08-07T21:07:48.767Z,4.80
2022-08-07T21:10:29.850Z,4.88
2022-08-07T21:13:05.049Z,2.88
2022-08-07T21:15:48.180Z,4.53
2022-08-07T21:18:28.067Z,4.70
2022-08-07T21:20:59.500Z,4.60
2022-08-07T21:23:42.714Z,4.20
2022-08-07T21:26:48.071Z,4.80
2022-08-07T21:29:52.878Z,2.80
2022-08-07T21:32:46.585Z,8.20
2022-08-07T21:36:03.911Z,8.43
2022-08-07T21:38:27.855Z,4.32
2022-08-07T21:41:10.772Z,4.03
2022-08-07T21:44:28.645Z,3.42
2022-08-07T21:47:12.108Z,3.15
2022-08-07T21:50:02.319Z,4.95
2022-08-07T21:52:41.553Z,5.05
2022-08-07T21:55:27.900Z,3.28
2022-08-07T21:58:30.003Z,3.83
2022-08-07T22:01:16.943Z,4.70
2022-08-07T22:03:51.621Z,5.30
2022-08-07T22:06:33.831Z,4.82
2022-08-07T22:09:07.364Z,5.15
2022-08-07T22:11:52.925Z,4.00
2022-08-07T22:14:36.330Z,4.43
2022-08-07T22:17:05.115Z,5.63
2022-08-07T22:19:38.641Z,3.38
2022-08-07T22:22:20.708Z,3.58
2022-08-07T22:25:17.213Z,5.10
2022-08-07T22:28:29.812Z,4.82
2022-08-07T22:31:12.244Z,6.30
2022-08-07T22:34:13.776Z,4.15
2022-08-07T22:36:52.722Z,4.80
2022-08-07T22:39:52.910Z,4.05
2022-08-07T22:42:25.929Z,5.18
2022-08-07T22:46:04.496Z,4.60
2022-08-07T22:48:54.683Z,3.88
2022-08-07T22:51:31.912Z,4.95
2022-08-07T22:54:25.831Z,4.10
2022-08-07T22:57:17.129Z,5.63
2022-08-07T22:59:53.286Z,6.22
2022-08-07T23:02:46.703Z,5.43
2022-08-07T23:06:09.663Z,7.88
2022-08-07T23:08:58.643Z,5.60
2022-08-07T23:11:59.651Z,4.82
2022-08-07T23:14:41.046Z,5.72
2022-08-07T23:17:26.109Z,6.35
2022-08-07T23:20:51.847Z,6.70
2022-08-07T23:24:04.320Z,5.07
2022-08-07T23:26:56.288Z,5.80
2022-08-07T23:29:43.644Z,5.93
2022-08-07T23:34:20.072Z,6.90
2022-08-07T23:35:49.772Z,5.88
2022-08-07T23:38:43.375Z,6.03
2022-08-07T23:41:33.467Z,6.60
2022-08-07T23:44:37.636Z,9.23
2022-08-07T23:47:20.636Z,4.78
2022-08-07T23:50:03.687Z,5.32
2022-08-07T23:53:05.276Z,6.22
2022-08-07T23:55:53.197Z,7.25
2022-08-07T23:58:57.539Z,6.95
